Time;durP1;ratioP1;P1;durP2;ratioP2;P2;SDS_P1;SDS_P2;PMS_P1;PMS_P2;Temp;Humidity;BMP_temperature;BMP_pressure;BME280_temperature;BME280_humidity;BME280_pressure;Samples;Min_cycle;Max_cycle;Signal;HPM_P1;HPM_P2
2024/01/01 00:02:50;;;;;;;55.93;3.77;;;;;;;;;;5078060;28;20426;-67
2024/01/01 00:05:17;;;;;;;55.87;3.20;;;;;;;;;;5076784;28;20439;-68
2024/01/01 00:07:45;;;;;;;55.90;2.57;;;;;;;;;;5077841;28;20553;-68
2024/01/01 00:10:13;;;;;;;56.73;4.63;;;;;;;;;;5077278;28;20464;-68
2024/01/01 00:12:40;;;;;;;55.83;2.77;;;;;;;;;;5075932;28;20538;-68
2024/01/01 00:15:08;;;;;;;55.87;2.47;;;;;;;;;;5073200;28;20535;-70
2024/01/01 00:17:35;;;;;;;55.47;2.30;;;;;;;;;;5074947;28;20467;-71
2024/01/01 00:20:02;;;;;;;55.90;2.80;;;;;;;;;;5074002;28;20507;-69
2024/01/01 00:22:29;;;;;;;55.60;2.50;;;;;;;;;;5075139;28;20475;-69
2024/01/01 00:24:56;;;;;;;55.70;2.50;;;;;;;;;;5074922;28;20472;-69
2024/01/01 00:27:25;;;;;;;55.70;2.50;;;;;;;;;;5076154;28;20491;-68
2024/01/01 00:29:53;;;;;;;55.60;2.40;;;;;;;;;;5071213;28;20477;-68
2024/01/01 00:32:20;;;;;;;55.67;2.30;;;;;;;;;;5077172;28;20491;-68
2024/01/01 00:34:47;;;;;;;55.07;2.10;;;;;;;;;;5077180;28;20455;-67
2024/01/01 00:37:14;;;;;;;55.70;2.20;;;;;;;;;;5077118;28;20460;-69
2024/01/01 00:39:41;;;;;;;56.10;2.77;;;;;;;;;;5077678;28;20430;-68
2024/01/01 00:42:08;;;;;;;56.00;2.97;;;;;;;;;;5077217;28;20486;-67
2024/01/01 00:44:37;;;;;;;55.60;2.20;;;;;;;;;;5073690;28;20444;-68
2024/01/01 00:47:04;;;;;;;55.60;2.40;;;;;;;;;;5072943;28;20920;-68
2024/01/01 00:49:31;;;;;;;55.73;2.30;;;;;;;;;;5076984;28;20451;-68
2024/01/01 00:51:58;;;;;;;55.60;2.60;;;;;;;;;;5076713;28;20435;-68
2024/01/01 00:54:28;;;;;;;55.60;2.43;;;;;;;;;;5076796;28;20450;-68
2024/01/01 00:56:55;;;;;;;55.70;2.40;;;;;;;;;;5077117;28;20442;-68
2024/01/01 00:59:22;;;;;;;55.60;2.30;;;;;;;;;;5076747;28;20457;-67
2024/01/01 01:01:51;;;;;;;55.60;2.30;;;;;;;;;;5077012;28;20433;-68
2024/01/01 01:04:18;;;;;;;55.83;2.80;;;;;;;;;;5076583;28;20509;-69
2024/01/01 01:06:45;;;;;;;55.70;2.63;;;;;;;;;;5076892;28;20539;-68
2024/01/01 01:09:13;;;;;;;55.93;2.50;;;;;;;;;;5077084;28;20451;-69
2024/01/01 01:11:40;;;;;;;55.90;2.13;;;;;;;;;;5076457;28;20444;-70
2024/01/01 01:14:07;;;;;;;55.47;2.10;;;;;;;;;;5076490;28;20467;-69
2024/01/01 01:16:35;;;;;;;55.47;2.13;;;;;;;;;;5076732;28;20462;-67
2024/01/01 01:19:03;;;;;;;56.00;2.30;;;;;;;;;;5076796;28;20461;-69
2024/01/01 01:21:30;;;;;;;55.63;2.30;;;;;;;;;;5076802;28;20596;-67
2024/01/01 01:23:58;;;;;;;55.90;2.60;;;;;;;;;;5076520;28;20470;-66
2024/01/01 01:26:25;;;;;;;55.70;2.37;;;;;;;;;;5076457;28;20531;-67
2024/01/01 01:28:52;;;;;;;56.43;2.60;;;;;;;;;;5076268;28;20441;-66
2024/01/01 01:31:19;;;;;;;55.53;2.40;;;;;;;;;;5076083;28;20452;-67
2024/01/01 01:33:46;;;;;;;55.67;2.33;;;;;;;;;;5076271;28;20457;-68
2024/01/01 01:36:15;;;;;;;56.30;2.73;;;;;;;;;;5076541;28;20456;-66
2024/01/01 01:38:42;;;;;;;55.70;2.40;;;;;;;;;;5076474;28;20430;-67
2024/01/01 01:41:09;;;;;;;55.80;2.40;;;;;;;;;;5076266;28;20474;-66
2024/01/01 01:43:36;;;;;;;55.43;2.10;;;;;;;;;;5075953;28;20483;-66
2024/01/01 01:46:04;;;;;;;55.70;2.13;;;;;;;;;;5068092;28;20476;-68
2024/01/01 01:48:32;;;;;;;56.00;2.50;;;;;;;;;;5076271;28;20498;-69
2024/01/01 01:50:59;;;;;;;55.77;2.50;;;;;;;;;;5076155;28;20431;-71
2024/01/01 01:53:29;;;;;;;55.47;2.63;;;;;;;;;;5075050;28;20471;-69
2024/01/01 01:55:58;;;;;;;55.60;2.10;;;;;;;;;;5075477;28;20459;-69
2024/01/01 01:58:25;;;;;;;55.57;2.40;;;;;;;;;;5076234;28;20470;-70
2024/01/01 02:00:54;;;;;;;55.50;1.90;;;;;;;;;;5076074;28;20453;-68
2024/01/01 02:03:22;;;;;;;55.37;2.30;;;;;;;;;;5075987;28;20513;-68
2024/01/01 02:05:49;;;;;;;55.67;2.50;;;;;;;;;;5075971;28;20478;-69
2024/01/01 02:08:16;;;;;;;55.50;2.20;;;;;;;;;;5076062;28;20550;-68
2024/01/01 02:10:45;;;;;;;55.70;2.20;;;;;;;;;;5075912;28;20466;-68
2024/01/01 02:13:23;;;;;;;55.70;2.40;;;;;;;;;;5075342;28;20447;-69
2024/01/01 02:15:50;;;;;;;55.43;2.80;;;;;;;;;;5076100;28;20431;-68
2024/01/01 02:18:17;;;;;;;55.57;2.10;;;;;;;;;;5075869;28;20467;-68
2024/01/01 02:20:45;;;;;;;55.67;2.30;;;;;;;;;;5076058;28;20483;-68
2024/01/01 02:23:14;;;;;;;55.50;2.20;;;;;;;;;;5075774;28;20548;-70
2024/01/01 02:25:42;;;;;;;55.47;1.90;;;;;;;;;;5067113;28;20486;-68
2024/01/01 02:28:09;;;;;;;55.57;2.13;;;;;;;;;;5075551;28;20475;-68
2024/01/01 02:30:36;;;;;;;55.60;2.40;;;;;;;;;;5075363;28;20468;-68
2024/01/01 02:33:08;;;;;;;55.57;2.47;;;;;;;;;;5075468;28;20451;-70
2024/01/01 02:35:35;;;;;;;55.57;2.00;;;;;;;;;;5075258;28;20437;-69
2024/01/01 02:38:04;;;;;;;55.70;2.57;;;;;;;;;;5075422;28;20515;-68
2024/01/01 02:40:32;;;;;;;55.47;1.97;;;;;;;;;;5075824;28;20447;-68
2024/01/01 02:43:00;;;;;;;55.70;2.00;;;;;;;;;;5078516;28;20455;-67
2024/01/01 02:45:27;;;;;;;59.60;3.70;;;;;;;;;;5079153;28;20446;-67
2024/01/01 02:50:58;;;;;;;55.87;2.50;;;;;;;;;;5078337;28;20417;-69
2024/01/01 02:53:25;;;;;;;55.70;2.53;;;;;;;;;;5072829;28;20500;-72
2024/01/01 02:55:54;;;;;;;56.63;3.47;;;;;;;;;;5074423;28;20475;-68
2024/01/01 02:58:21;;;;;;;57.03;3.03;;;;;;;;;;5078146;28;20458;-68
2024/01/01 03:00:48;;;;;;;57.27;3.00;;;;;;;;;;5078574;28;20527;-69
2024/01/01 03:03:15;;;;;;;55.80;2.90;;;;;;;;;;5078160;28;20498;-69
2024/01/01 03:05:43;;;;;;;58.30;3.10;;;;;;;;;;5078092;28;20511;-68
2024/01/01 03:08:10;;;;;;;55.53;2.23;;;;;;;;;;5078331;28;20502;-68
2024/01/01 03:10:37;;;;;;;55.60;2.40;;;;;;;;;;5078564;28;20474;-68
2024/01/01 03:13:06;;;;;;;55.67;2.37;;;;;;;;;;5078476;28;20593;-67
2024/01/01 03:15:33;;;;;;;55.70;2.30;;;;;;;;;;5078094;28;20510;-67
2024/01/01 03:18:00;;;;;;;55.60;2.60;;;;;;;;;;5078103;28;20518;-69
2024/01/01 03:20:31;;;;;;;55.63;2.57;;;;;;;;;;5078283;28;20474;-67
2024/01/01 03:22:58;;;;;;;55.73;2.47;;;;;;;;;;5078269;28;20463;-68
2024/01/01 03:25:25;;;;;;;55.60;2.57;;;;;;;;;;5078187;28;20684;-67
2024/01/01 03:27:54;;;;;;;55.47;2.30;;;;;;;;;;5078197;28;20503;-67
2024/01/01 03:30:23;;;;;;;55.77;2.63;;;;;;;;;;5077737;28;20444;-69
2024/01/01 03:32:51;;;;;;;55.67;2.30;;;;;;;;;;5078001;28;20467;-67
2024/01/01 03:35:19;;;;;;;56.20;3.17;;;;;;;;;;5078145;28;20458;-67
2024/01/01 03:37:46;;;;;;;55.77;2.40;;;;;;;;;;5078353;28;20517;-67
2024/01/01 03:40:14;;;;;;;55.77;2.80;;;;;;;;;;5078381;28;20444;-67
2024/01/01 03:42:41;;;;;;;56.00;3.13;;;;;;;;;;5078139;28;20467;-67
2024/01/01 03:45:09;;;;;;;55.90;3.27;;;;;;;;;;5078106;28;20439;-66
2024/01/01 03:47:37;;;;;;;55.63;2.33;;;;;;;;;;5078133;28;20483;-67
2024/01/01 03:50:06;;;;;;;55.60;2.27;;;;;;;;;;5077972;28;20459;-67
2024/01/01 03:52:33;;;;;;;56.00;2.87;;;;;;;;;;5077741;28;20522;-67
2024/01/01 03:55:00;;;;;;;55.60;2.60;;;;;;;;;;5077863;28;20443;-67
2024/01/01 03:57:27;;;;;;;55.67;2.53;;;;;;;;;;5077677;28;20494;-68
2024/01/01 03:59:55;;;;;;;56.30;2.97;;;;;;;;;;5077782;28;20451;-67
2024/01/01 04:02:22;;;;;;;55.57;2.40;;;;;;;;;;5077388;28;20469;-68
2024/01/01 04:04:50;;;;;;;55.67;2.40;;;;;;;;;;5077779;28;20470;-68
2024/01/01 04:07:18;;;;;;;55.57;2.67;;;;;;;;;;5077711;28;20895;-67
2024/01/01 04:09:45;;;;;;;55.47;2.33;;;;;;;;;;5077291;28;20446;-68
2024/01/01 04:12:12;;;;;;;55.50;2.50;;;;;;;;;;5076444;28;20453;-69
2024/01/01 04:14:40;;;;;;;55.70;2.40;;;;;;;;;;5076966;28;20460;-70
2024/01/01 04:17:07;;;;;;;55.70;2.47;;;;;;;;;;5076967;28;20455;-69
2024/01/01 04:19:34;;;;;;;55.57;2.40;;;;;;;;;;5076843;28;20486;-69
2024/01/01 04:22:03;;;;;;;56.10;3.20;;;;;;;;;;5077320;28;20471;-68
2024/01/01 04:24:30;;;;;;;55.57;2.50;;;;;;;;;;5077216;28;21039;-70
2024/01/01 04:26:57;;;;;;;55.43;2.23;;;;;;;;;;5075480;28;20467;-72
2024/01/01 04:29:24;;;;;;;55.23;2.50;;;;;;;;;;5076672;28;20504;-70
2024/01/01 04:31:51;;;;;;;55.83;2.57;;;;;;;;;;5076809;28;20453;-67
2024/01/01 04:34:18;;;;;;;55.70;2.50;;;;;;;;;;5076894;28;20476;-69
2024/01/01 04:36:45;;;;;;;55.60;2.50;;;;;;;;;;5076658;28;20458;-69
2024/01/01 04:39:14;;;;;;;55.53;2.70;;;;;;;;;;5077148;28;20447;-69
2024/01/01 04:41:41;;;;;;;55.60;2.37;;;;;;;;;;5076628;28;20486;-69
2024/01/01 04:44:08;;;;;;;55.80;2.63;;;;;;;;;;5076351;28;20470;-70
2024/01/01 04:46:35;;;;;;;55.67;2.40;;;;;;;;;;5076532;28;20443;-69
2024/01/01 04:49:02;;;;;;;55.77;2.70;;;;;;;;;;5076227;28;20501;-67
2024/01/01 04:51:29;;;;;;;55.50;2.20;;;;;;;;;;5074486;28;20475;-70
2024/01/01 04:53:57;;;;;;;55.47;2.20;;;;;;;;;;5075719;28;20486;-68
2024/01/01 04:56:25;;;;;;;55.67;2.40;;;;;;;;;;5076318;28;20448;-68
2024/01/01 04:58:53;;;;;;;55.70;2.40;;;;;;;;;;5068662;28;20443;-69
2024/01/01 05:01:20;;;;;;;55.60;2.47;;;;;;;;;;5076352;28;20462;-71
2024/01/01 05:03:47;;;;;;;55.53;2.50;;;;;;;;;;5075174;28;20496;-69
2024/01/01 05:06:15;;;;;;;55.77;2.77;;;;;;;;;;5076182;28;20455;-69
2024/01/01 05:08:43;;;;;;;55.70;2.27;;;;;;;;;;5075783;28;20507;-68
2024/01/01 05:11:10;;;;;;;55.47;2.10;;;;;;;;;;5075593;28;20458;-71
2024/01/01 05:13:38;;;;;;;55.40;2.20;;;;;;;;;;5075364;28;20475;-69
2024/01/01 05:16:09;;;;;;;55.47;2.43;;;;;;;;;;5075436;28;20485;-69
2024/01/01 05:18:36;;;;;;;55.57;2.17;;;;;;;;;;5075643;28;20450;-69
2024/01/01 05:21:03;;;;;;;55.70;2.50;;;;;;;;;;5075845;28;20471;-68
2024/01/01 05:23:30;;;;;;;55.50;2.27;;;;;;;;;;5075104;28;20485;-69
2024/01/01 05:25:57;;;;;;;55.63;2.67;;;;;;;;;;5075730;28;20467;-69
2024/01/01 05:28:25;;;;;;;55.77;2.97;;;;;;;;;;5076058;28;20505;-69
2024/01/01 05:30:55;;;;;;;55.70;2.40;;;;;;;;;;5067855;28;20439;-69
2024/01/01 05:33:43;;;;;;;55.67;2.50;;;;;;;;;;5075559;28;20482;-69
2024/01/01 05:36:13;;;;;;;55.53;2.10;;;;;;;;;;5075534;28;20451;-69
2024/01/01 05:38:40;;;;;;;55.77;2.63;;;;;;;;;;5075214;28;20560;-69
2024/01/01 05:41:07;;;;;;;55.57;2.00;;;;;;;;;;5074120;28;20470;-70
2024/01/01 05:43:34;;;;;;;55.60;2.30;;;;;;;;;;5073767;28;20507;-70
2024/01/01 05:46:03;;;;;;;55.70;2.90;;;;;;;;;;5073199;28;20471;-72
2024/01/01 05:48:30;;;;;;;55.57;2.50;;;;;;;;;;5072719;28;20538;-70
2024/01/01 05:50:57;;;;;;;55.50;2.47;;;;;;;;;;5072460;28;20516;-70
2024/01/01 05:56:27;;;;;;;55.67;2.27;;;;;;;;;;5073468;28;20432;-68
2024/01/01 05:58:54;;;;;;;55.73;2.77;;;;;;;;;;5075446;28;20519;-69
2024/01/01 06:01:23;;;;;;;55.70;2.30;;;;;;;;;;5075603;28;20507;-69
2024/01/01 06:03:50;;;;;;;55.80;2.90;;;;;;;;;;5075098;28;20594;-69
2024/01/01 06:06:17;;;;;;;55.57;2.50;;;;;;;;;;5074665;28;20490;-69
2024/01/01 06:08:44;;;;;;;55.47;2.20;;;;;;;;;;5075696;28;20546;-68
2024/01/01 06:11:11;;;;;;;55.47;2.30;;;;;;;;;;5076074;28;20434;-69
2024/01/01 06:13:38;;;;;;;55.47;2.20;;;;;;;;;;5075448;28;20482;-68
2024/01/01 06:16:06;;;;;;;55.67;2.60;;;;;;;;;;5075314;28;20480;-72
2024/01/01 06:18:34;;;;;;;55.67;2.43;;;;;;;;;;5076297;28;20445;-69
2024/01/01 06:21:02;;;;;;;55.67;2.60;;;;;;;;;;5074590;28;20952;-73
2024/01/01 06:23:29;;;;;;;55.60;2.60;;;;;;;;;;5075012;28;20491;-69
2024/01/01 06:25:56;;;;;;;55.57;2.43;;;;;;;;;;5074355;28;20451;-72
2024/01/01 06:28:25;;;;;;;55.70;2.33;;;;;;;;;;5075375;28;20530;-69
2024/01/01 06:30:53;;;;;;;55.40;2.40;;;;;;;;;;5070726;28;20431;-68
2024/01/01 06:33:20;;;;;;;55.50;2.30;;;;;;;;;;5079456;28;20521;-68
2024/01/01 06:35:48;;;;;;;55.90;2.60;;;;;;;;;;5078813;28;20509;-70
2024/01/01 06:38:16;;;;;;;55.80;2.50;;;;;;;;;;5079347;28;20467;-70
2024/01/01 06:40:43;;;;;;;55.70;2.63;;;;;;;;;;5079191;28;20452;-69
2024/01/01 06:43:10;;;;;;;55.67;2.43;;;;;;;;;;5079330;28;20477;-67
2024/01/01 06:45:37;;;;;;;55.50;2.40;;;;;;;;;;5079013;28;20482;-66
2024/01/01 06:48:05;;;;;;;55.70;2.53;;;;;;;;;;5079404;28;20515;-69
2024/01/01 06:50:32;;;;;;;55.57;2.43;;;;;;;;;;5079317;28;20458;-70
2024/01/01 06:53:00;;;;;;;55.33;1.90;;;;;;;;;;5079249;28;20514;-69
2024/01/01 06:55:29;;;;;;;55.60;2.90;;;;;;;;;;5078752;28;20467;-68
2024/01/01 06:57:56;;;;;;;55.50;2.23;;;;;;;;;;5070800;28;20458;-69
2024/01/01 07:00:23;;;;;;;55.90;2.77;;;;;;;;;;5077984;28;20478;-68
2024/01/01 07:02:50;;;;;;;55.70;2.33;;;;;;;;;;5078603;28;20444;-68
2024/01/01 07:05:18;;;;;;;55.70;2.60;;;;;;;;;;5078844;28;20443;-68
2024/01/01 07:07:45;;;;;;;55.60;2.40;;;;;;;;;;5078794;28;20542;-68
2024/01/01 07:10:13;;;;;;;55.53;2.40;;;;;;;;;;5078979;28;20505;-68
2024/01/01 07:12:40;;;;;;;55.47;2.40;;;;;;;;;;5078910;28;20476;-68
2024/01/01 07:15:07;;;;;;;55.47;2.13;;;;;;;;;;5078614;28;20471;-68
2024/01/01 07:17:35;;;;;;;55.57;2.60;;;;;;;;;;5078627;28;20450;-69
2024/01/01 07:20:04;;;;;;;55.57;2.53;;;;;;;;;;5078798;28;20462;-68
2024/01/01 07:22:31;;;;;;;55.70;2.40;;;;;;;;;;5078438;28;20486;-68
2024/01/01 07:24:58;;;;;;;55.60;2.23;;;;;;;;;;5078740;28;20506;-68
2024/01/01 07:27:26;;;;;;;55.60;2.40;;;;;;;;;;5078249;28;20513;-67
2024/01/01 07:29:53;;;;;;;55.47;2.30;;;;;;;;;;5078121;28;20507;-67
2024/01/01 07:32:20;;;;;;;55.33;2.20;;;;;;;;;;5078490;28;20464;-66
2024/01/01 07:34:47;;;;;;;55.90;2.83;;;;;;;;;;5078083;28;20474;-69
2024/01/01 07:37:15;;;;;;;55.77;2.50;;;;;;;;;;5078299;28;20523;-67
2024/01/01 07:39:42;;;;;;;55.33;2.40;;;;;;;;;;5078400;28;20507;-69
2024/01/01 07:42:09;;;;;;;55.70;2.50;;;;;;;;;;5078303;28;20455;-68
2024/01/01 07:44:37;;;;;;;55.37;2.10;;;;;;;;;;5078082;28;20440;-68
2024/01/01 07:47:05;;;;;;;55.60;2.30;;;;;;;;;;5078083;28;20479;-68
2024/01/01 07:49:32;;;;;;;55.40;2.47;;;;;;;;;;5077859;28;20556;-68
2024/01/01 07:51:59;;;;;;;56.30;2.80;;;;;;;;;;5077670;28;20534;-66
2024/01/01 07:54:26;;;;;;;55.47;2.40;;;;;;;;;;5076957;28;20434;-68
2024/01/01 07:56:53;;;;;;;55.63;2.30;;;;;;;;;;5077704;28;20422;-68
2024/01/01 07:59:21;;;;;;;55.63;2.40;;;;;;;;;;5077744;28;20463;-68
2024/01/01 08:01:49;;;;;;;55.50;2.60;;;;;;;;;;5077760;28;20496;-69
2024/01/01 08:04:16;;;;;;;55.60;2.03;;;;;;;;;;5077747;28;20493;-68
2024/01/01 08:06:43;;;;;;;56.50;3.27;;;;;;;;;;5077559;28;20446;-67
2024/01/01 08:09:10;;;;;;;55.47;2.20;;;;;;;;;;5076351;28;20539;-72
2024/01/01 08:11:37;;;;;;;55.50;2.10;;;;;;;;;;5076823;28;20483;-70
2024/01/01 08:14:05;;;;;;;55.33;2.20;;;;;;;;;;5077249;28;20498;-68
2024/01/01 08:16:33;;;;;;;55.43;2.20;;;;;;;;;;5076805;28;20477;-69
2024/01/01 08:19:02;;;;;;;55.57;2.07;;;;;;;;;;5077221;28;20446;-69
2024/01/01 08:21:29;;;;;;;55.53;2.27;;;;;;;;;;5076784;28;20496;-69
2024/01/01 08:23:56;;;;;;;55.17;2.10;;;;;;;;;;5076682;28;20502;-68
2024/01/01 08:26:23;;;;;;;55.67;2.40;;;;;;;;;;5077370;28;20440;-68
2024/01/01 08:28:52;;;;;;;55.70;2.67;;;;;;;;;;5075907;28;20509;-69
2024/01/01 08:31:19;;;;;;;55.57;2.57;;;;;;;;;;5076578;28;20526;-68
2024/01/01 08:33:47;;;;;;;55.57;2.33;;;;;;;;;;5074181;28;20471;-70
2024/01/01 08:36:15;;;;;;;55.30;2.50;;;;;;;;;;5073197;28;20582;-72
2024/01/01 08:38:42;;;;;;;55.47;2.30;;;;;;;;;;5071792;28;20467;-72
2024/01/01 08:41:09;;;;;;;55.77;2.53;;;;;;;;;;5072558;28;20850;-71
2024/01/01 08:43:37;;;;;;;55.27;2.63;;;;;;;;;;5072718;28;20556;-69
2024/01/01 08:46:05;;;;;;;55.70;2.30;;;;;;;;;;5070705;28;20540;-72
2024/01/01 08:48:32;;;;;;;55.57;2.40;;;;;;;;;;5067283;28;20510;-68
2024/01/01 08:50:59;;;;;;;55.43;2.30;;;;;;;;;;5072950;28;20538;-71
2024/01/01 08:53:27;;;;;;;55.47;2.80;;;;;;;;;;5073416;28;20455;-69
2024/01/01 08:55:55;;;;;;;55.53;2.10;;;;;;;;;;5073601;28;20444;-72
2024/01/01 08:58:22;;;;;;;55.60;2.50;;;;;;;;;;5073044;28;20552;-70
2024/01/01 09:00:49;;;;;;;55.37;2.40;;;;;;;;;;5076721;28;20480;-68
2024/01/01 09:03:16;;;;;;;57.17;3.70;;;;;;;;;;5076035;28;20542;-70
2024/01/01 09:05:43;;;;;;;55.43;2.20;;;;;;;;;;5075876;28;20463;-71
2024/01/01 09:08:10;;;;;;;55.60;2.30;;;;;;;;;;5069472;28;20459;-70
2024/01/01 09:10:39;;;;;;;55.37;2.47;;;;;;;;;;5050766;28;20490;-71
2024/01/01 09:13:07;;;;;;;55.53;2.37;;;;;;;;;;5051503;28;20492;-71
2024/01/01 09:15:34;;;;;;;58.77;3.53;;;;;;;;;;5051251;28;20459;-70
2024/01/01 09:18:01;;;;;;;55.67;2.20;;;;;;;;;;5043002;28;20468;-70
2024/01/01 09:20:28;;;;;;;55.07;2.00;;;;;;;;;;5051170;28;20501;-70
2024/01/01 09:22:57;;;;;;;55.43;2.30;;;;;;;;;;5051245;28;20462;-71
2024/01/01 09:25:24;;;;;;;55.40;2.20;;;;;;;;;;5050725;28;20447;-70
2024/01/01 09:27:52;;;;;;;55.27;2.30;;;;;;;;;;5051154;28;20978;-70
2024/01/01 09:30:19;;;;;;;55.50;2.30;;;;;;;;;;5051043;28;20491;-71
2024/01/01 09:32:46;;;;;;;55.53;2.00;;;;;;;;;;5050973;28;20472;-70
2024/01/01 09:35:14;;;;;;;55.47;2.40;;;;;;;;;;5050757;28;20448;-70
2024/01/01 09:37:41;;;;;;;55.70;2.10;;;;;;;;;;5050738;28;20454;-71
2024/01/01 09:40:09;;;;;;;55.57;2.40;;;;;;;;;;5050941;28;20450;-71
2024/01/01 09:42:37;;;;;;;55.70;2.40;;;;;;;;;;5051157;28;20474;-70
2024/01/01 09:45:05;;;;;;;55.43;2.00;;;;;;;;;;5050741;28;20551;-70
2024/01/01 09:47:33;;;;;;;55.57;2.00;;;;;;;;;;5051037;28;20455;-70
2024/01/01 09:50:00;;;;;;;55.37;2.20;;;;;;;;;;5050982;28;21112;-70
2024/01/01 09:52:27;;;;;;;55.40;1.90;;;;;;;;;;5055160;28;20477;-71
2024/01/01 09:54:54;;;;;;;55.40;1.90;;;;;;;;;;5056713;28;20454;-71
2024/01/01 09:57:21;;;;;;;55.80;2.10;;;;;;;;;;5057031;28;20455;-71
2024/01/01 09:59:48;;;;;;;55.50;2.17;;;;;;;;;;5058019;28;20447;-71
2024/01/01 10:02:17;;;;;;;55.33;2.10;;;;;;;;;;5055251;28;20449;-71
2024/01/01 10:04:44;;;;;;;55.27;1.93;;;;;;;;;;5054514;28;20450;-70
2024/01/01 10:07:11;;;;;;;55.70;2.10;;;;;;;;;;5054614;28;20822;-71
2024/01/01 10:09:47;;;;;;;55.50;2.00;;;;;;;;;;5054542;28;20512;-70
2024/01/01 10:12:15;;;;;;;55.47;1.90;;;;;;;;;;5054517;28;20442;-70
2024/01/01 10:14:46;;;;;;;55.67;2.10;;;;;;;;;;5054125;28;20450;-70
2024/01/01 10:17:14;;;;;;;55.23;1.80;;;;;;;;;;5054064;28;20458;-70
2024/01/01 10:19:49;;;;;;;55.43;1.77;;;;;;;;;;5053965;28;20443;-69
2024/01/01 10:22:18;;;;;;;55.80;1.83;;;;;;;;;;5054008;28;20907;-69
2024/01/01 10:24:45;;;;;;;55.50;1.87;;;;;;;;;;5053784;28;20458;-70
2024/01/01 10:27:13;;;;;;;55.07;1.97;;;;;;;;;;5054249;28;20447;-70
2024/01/01 10:29:40;;;;;;;55.37;1.90;;;;;;;;;;5053972;28;20490;-70
2024/01/01 10:32:08;;;;;;;55.90;1.83;;;;;;;;;;5053883;28;20470;-70
2024/01/01 10:34:37;;;;;;;55.77;1.90;;;;;;;;;;5053870;28;20981;-70
2024/01/01 10:37:07;;;;;;;55.37;2.00;;;;;;;;;;5045926;28;20451;-70
2024/01/01 10:39:34;;;;;;;58.83;2.30;;;;;;;;;;5053807;28;20447;-70
2024/01/01 10:42:02;;;;;;;55.43;1.60;;;;;;;;;;5053942;28;20452;-70
2024/01/01 10:44:29;;;;;;;55.57;1.80;;;;;;;;;;5053480;28;20461;-70
2024/01/01 10:46:58;;;;;;;55.67;2.00;;;;;;;;;;5053890;28;20451;-70
2024/01/01 10:49:27;;;;;;;55.07;1.73;;;;;;;;;;5053830;28;20834;-70
2024/01/01 10:52:01;;;;;;;55.17;2.00;;;;;;;;;;5053521;28;20473;-70
2024/01/01 10:54:41;;;;;;;55.17;1.80;;;;;;;;;;5053553;28;20472;-70
2024/01/01 10:57:14;;;;;;;55.73;2.20;;;;;;;;;;5053479;28;20450;-70
2024/01/01 10:59:45;;;;;;;55.83;2.00;;;;;;;;;;5053725;28;20443;-70
2024/01/01 11:02:12;;;;;;;55.07;1.60;;;;;;;;;;5052738;28;20955;-70
2024/01/01 11:04:39;;;;;;;55.77;2.00;;;;;;;;;;5053273;28;20457;-70
2024/01/01 11:07:07;;;;;;;56.00;2.27;;;;;;;;;;5053522;28;20465;-70
2024/01/01 11:09:35;;;;;;;55.37;2.10;;;;;;;;;;5053301;28;20492;-71
2024/01/01 11:12:04;;;;;;;55.50;1.77;;;;;;;;;;5053259;28;20454;-70
2024/01/01 11:14:31;;;;;;;55.57;2.10;;;;;;;;;;5053197;28;20454;-70
2024/01/01 11:16:59;;;;;;;55.67;2.40;;;;;;;;;;5053328;28;20462;-71
2024/01/01 11:19:36;;;;;;;55.50;1.90;;;;;;;;;;5053182;28;20448;-71
2024/01/01 11:22:18;;;;;;;55.53;2.10;;;;;;;;;;5052891;28;20515;-71
2024/01/01 11:24:47;;;;;;;55.50;1.87;;;;;;;;;;5052742;28;20854;-70
2024/01/01 11:27:26;;;;;;;55.70;2.20;;;;;;;;;;5053337;28;20454;-70
2024/01/01 11:29:54;;;;;;;55.47;2.00;;;;;;;;;;5052882;28;20493;-71
2024/01/01 11:32:22;;;;;;;55.47;2.40;;;;;;;;;;5052971;28;20472;-71
2024/01/01 11:35:04;;;;;;;55.80;1.90;;;;;;;;;;5052521;28;20456;-69
2024/01/01 11:37:31;;;;;;;55.70;2.27;;;;;;;;;;5053166;28;20460;-70
2024/01/01 11:39:59;;;;;;;54.80;1.97;;;;;;;;;;5052868;28;20495;-70
2024/01/01 11:42:26;;;;;;;55.60;1.87;;;;;;;;;;5052633;28;20476;-70
2024/01/01 11:45:05;;;;;;;55.47;2.00;;;;;;;;;;5052195;28;20464;-70
2024/01/01 11:47:32;;;;;;;56.10;2.30;;;;;;;;;;5052760;28;20929;-70
2024/01/01 11:49:59;;;;;;;55.57;1.90;;;;;;;;;;5052683;28;20833;-70
2024/01/01 11:52:26;;;;;;;55.77;2.47;;;;;;;;;;5052662;28;20473;-69
2024/01/01 11:54:53;;;;;;;55.17;2.03;;;;;;;;;;5052277;28;20454;-70
2024/01/01 11:57:22;;;;;;;55.47;1.87;;;;;;;;;;5052301;28;20446;-70
2024/01/01 11:59:49;;;;;;;55.57;2.20;;;;;;;;;;5052292;28;20450;-70
2024/01/01 12:02:17;;;;;;;56.37;2.10;;;;;;;;;;5052468;28;20456;-70
2024/01/01 12:04:45;;;;;;;55.57;2.00;;;;;;;;;;5052046;28;20962;-70
2024/01/01 12:07:12;;;;;;;55.50;2.37;;;;;;;;;;5052327;28;20455;-70
2024/01/01 12:09:39;;;;;;;55.60;2.10;;;;;;;;;;5052099;28;20546;-70
2024/01/01 12:12:06;;;;;;;55.43;2.00;;;;;;;;;;5052078;28;20442;-70
2024/01/01 12:14:35;;;;;;;55.70;2.10;;;;;;;;;;5052020;28;20546;-70
2024/01/01 12:17:05;;;;;;;55.40;1.80;;;;;;;;;;5052036;28;20454;-70
2024/01/01 12:19:33;;;;;;;55.40;1.80;;;;;;;;;;5052124;28;20952;-70
2024/01/01 12:22:00;;;;;;;55.60;2.33;;;;;;;;;;5049301;28;20458;-69
2024/01/01 12:24:27;;;;;;;55.70;2.00;;;;;;;;;;5051423;28;20456;-68
2024/01/01 12:27:02;;;;;;;55.17;1.87;;;;;;;;;;5051687;28;20449;-70
2024/01/01 12:29:29;;;;;;;55.07;1.73;;;;;;;;;;5047486;28;20474;-69
2024/01/01 12:31:58;;;;;;;55.30;1.80;;;;;;;;;;5050570;28;21080;-70
2024/01/01 12:34:26;;;;;;;55.77;2.30;;;;;;;;;;5051414;28;20442;-69
2024/01/01 12:36:54;;;;;;;55.50;1.90;;;;;;;;;;5052358;28;20533;-70
2024/01/01 12:39:21;;;;;;;55.40;1.90;;;;;;;;;;5049976;28;20974;-70
2024/01/01 12:41:48;;;;;;;55.50;1.90;;;;;;;;;;5048264;28;20449;-70
2024/01/01 12:44:16;;;;;;;55.60;1.90;;;;;;;;;;5051323;28;20470;-70
2024/01/01 12:46:43;;;;;;;55.60;1.73;;;;;;;;;;5051381;28;20455;-70
2024/01/01 12:49:11;;;;;;;55.50;1.90;;;;;;;;;;5051254;28;20447;-70
2024/01/01 12:51:38;;;;;;;55.77;1.80;;;;;;;;;;5051203;28;21004;-70
2024/01/01 12:54:05;;;;;;;55.70;2.23;;;;;;;;;;5051209;28;20846;-70
2024/01/01 12:56:33;;;;;;;55.70;1.90;;;;;;;;;;5051574;28;20448;-70
2024/01/01 12:59:00;;;;;;;55.70;1.57;;;;;;;;;;5051263;28;20458;-70
2024/01/01 13:01:27;;;;;;;55.60;1.80;;;;;;;;;;5050951;28;20533;-70
2024/01/01 13:03:55;;;;;;;55.43;1.90;;;;;;;;;;5050726;28;20474;-70
2024/01/01 13:06:24;;;;;;;55.47;1.67;;;;;;;;;;5051179;28;20501;-70
2024/01/01 13:08:52;;;;;;;55.33;1.90;;;;;;;;;;5051425;28;20457;-70
2024/01/01 13:11:19;;;;;;;55.43;2.40;;;;;;;;;;5051274;28;21075;-70
2024/01/01 13:13:46;;;;;;;55.50;1.97;;;;;;;;;;5050705;28;20475;-70
2024/01/01 13:16:14;;;;;;;55.80;2.10;;;;;;;;;;5050421;28;20930;-70
2024/01/01 13:18:41;;;;;;;55.50;2.20;;;;;;;;;;5050249;28;20458;-70
2024/01/01 13:21:08;;;;;;;55.50;1.60;;;;;;;;;;5050820;28;20765;-70
2024/01/01 13:23:37;;;;;;;55.37;1.83;;;;;;;;;;5049342;28;20500;-70
2024/01/01 13:26:04;;;;;;;55.60;1.97;;;;;;;;;;5050264;28;20495;-70
2024/01/01 13:28:32;;;;;;;55.47;2.00;;;;;;;;;;5050884;28;20507;-70
2024/01/01 13:31:00;;;;;;;55.47;1.90;;;;;;;;;;5050810;28;20509;-70
2024/01/01 13:33:27;;;;;;;55.60;1.90;;;;;;;;;;5050715;28;20966;-70
2024/01/01 13:35:54;;;;;;;55.60;2.10;;;;;;;;;;5050972;28;20447;-70
2024/01/01 13:38:21;;;;;;;55.50;2.20;;;;;;;;;;5050933;28;20454;-70
2024/01/01 13:40:50;;;;;;;55.47;2.00;;;;;;;;;;5050998;28;20799;-70
2024/01/01 13:43:19;;;;;;;55.70;1.87;;;;;;;;;;5042924;28;20463;-71
2024/01/01 13:45:46;;;;;;;55.50;2.00;;;;;;;;;;5050321;28;20457;-70
2024/01/01 13:48:13;;;;;;;55.47;2.20;;;;;;;;;;5050891;28;20438;-70
2024/01/01 13:50:42;;;;;;;55.37;2.10;;;;;;;;;;5046248;28;20492;-70
2024/01/01 13:53:09;;;;;;;55.60;1.80;;;;;;;;;;5050786;28;20531;-70
2024/01/01 13:55:37;;;;;;;55.60;1.80;;;;;;;;;;5050576;28;20452;-70
2024/01/01 13:58:06;;;;;;;55.77;1.90;;;;;;;;;;5050540;28;20489;-70
2024/01/01 14:00:36;;;;;;;55.60;2.00;;;;;;;;;;5050556;28;20448;-70
2024/01/01 14:03:03;;;;;;;55.33;2.00;;;;;;;;;;5050584;28;20470;-70
2024/01/01 14:05:30;;;;;;;55.53;2.20;;;;;;;;;;5050779;28;20820;-70
2024/01/01 14:07:57;;;;;;;55.33;2.00;;;;;;;;;;5050645;28;20544;-70
2024/01/01 14:10:24;;;;;;;55.57;2.47;;;;;;;;;;5050583;28;20485;-70
2024/01/01 14:12:52;;;;;;;55.50;2.10;;;;;;;;;;5050415;28;20470;-70
2024/01/01 14:15:23;;;;;;;55.43;1.77;;;;;;;;;;5050684;28;20461;-70
2024/01/01 14:17:50;;;;;;;55.43;2.40;;;;;;;;;;5050621;28;20525;-70
2024/01/01 14:20:18;;;;;;;55.50;1.80;;;;;;;;;;5050848;28;20867;-70
2024/01/01 14:22:45;;;;;;;55.47;2.00;;;;;;;;;;5050312;28;20480;-70
2024/01/01 14:25:12;;;;;;;55.60;1.90;;;;;;;;;;5050100;28;20438;-70
2024/01/01 14:27:41;;;;;;;55.37;1.90;;;;;;;;;;5048740;28;20552;-70
2024/01/01 14:30:09;;;;;;;55.27;2.33;;;;;;;;;;5049352;28;20484;-70
2024/01/01 14:32:37;;;;;;;55.57;1.80;;;;;;;;;;5050320;28;20476;-70
2024/01/01 14:35:05;;;;;;;56.67;2.97;;;;;;;;;;5050286;28;20447;-70
2024/01/01 14:37:32;;;;;;;56.97;3.63;;;;;;;;;;5051362;28;20572;-69
2024/01/01 14:39:59;;;;;;;55.33;2.10;;;;;;;;;;5054113;28;20440;-69
2024/01/01 14:42:26;;;;;;;55.50;2.23;;;;;;;;;;5054217;28;20823;-69